sensor_id;sensor_type;location;lat;lon;timestamp;P1;durP1;ratioP1;P2;durP2;ratioP2
64403;SDS011;50726;54.912;-8.392;2022-09-09T00:04:21;279.35;;;260.42;;
64403;SDS011;50726;54.912;-8.392;2022-09-09T00:09:19;281.50;;;262.42;;
64403;SDS011;50726;54.912;-8.392;2022-09-09T00:17:12;282.10;;;262.60;;
64403;SDS011;50726;54.912;-8.392;2022-09-09T00:22:25;289.90;;;270.10;;
64403;SDS011;50726;54.912;-8.392;2022-09-09T00:24:56;283.65;;;265.00;;
64403;SDS011;50726;54.912;-8.392;2022-09-09T00:37:35;275.80;;;256.93;;
64403;SDS011;50726;54.912;-8.392;2022-09-09T00:40:04;281.08;;;261.67;;
64403;SDS011;50726;54.912;-8.392;2022-09-09T00:42:43;285.17;;;264.88;;
64403;SDS011;50726;54.912;-8.392;2022-09-09T00:47:55;281.85;;;262.58;;
64403;SDS011;50726;54.912;-8.392;2022-09-09T00:59:10;286.00;;;266.25;;
64403;SDS011;50726;54.912;-8.392;2022-09-09T01:01:45;290.08;;;270.20;;
64403;SDS011;50726;54.912;-8.392;2022-09-09T01:04:16;275.98;;;256.55;;
64403;SDS011;50726;54.912;-8.392;2022-09-09T01:06:56;278.42;;;259.40;;
64403;SDS011;50726;54.912;-8.392;2022-09-09T01:09:56;273.65;;;254.30;;
64403;SDS011;50726;54.912;-8.392;2022-09-09T01:12:26;279.15;;;258.90;;
64403;SDS011;50726;54.912;-8.392;2022-09-09T01:15:08;275.92;;;256.77;;
64403;SDS011;50726;54.912;-8.392;2022-09-09T01:20:23;271.70;;;251.98;;
64403;SDS011;50726;54.912;-8.392;2022-09-09T01:28:50;262.35;;;243.50;;
64403;SDS011;50726;54.912;-8.392;2022-09-09T01:31:31;272.75;;;253.23;;
64403;SDS011;50726;54.912;-8.392;2022-09-09T01:34:01;269.95;;;250.48;;
64403;SDS011;50726;54.912;-8.392;2022-09-09T01:36:47;274.65;;;255.27;;
64403;SDS011;50726;54.912;-8.392;2022-09-09T01:39:17;257.02;;;239.30;;
64403;SDS011;50726;54.912;-8.392;2022-09-09T01:41:44;258.75;;;239.90;;
64403;SDS011;50726;54.912;-8.392;2022-09-09T01:44:11;262.38;;;242.60;;
64403;SDS011;50726;54.912;-8.392;2022-09-09T01:46:37;258.65;;;239.10;;
64403;SDS011;50726;54.912;-8.392;2022-09-09T01:49:03;256.50;;;237.70;;
64403;SDS011;50726;54.912;-8.392;2022-09-09T01:51:32;251.40;;;232.65;;
64403;SDS011;50726;54.912;-8.392;2022-09-09T01:53:58;262.77;;;242.55;;
64403;SDS011;50726;54.912;-8.392;2022-09-09T01:56:35;258.77;;;238.82;;
64403;SDS011;50726;54.912;-8.392;2022-09-09T02:01:46;250.50;;;232.07;;
64403;SDS011;50726;54.912;-8.392;2022-09-09T02:04:25;244.40;;;226.75;;
64403;SDS011;50726;54.912;-8.392;2022-09-09T02:07:00;233.80;;;216.70;;
64403;SDS011;50726;54.912;-8.392;2022-09-09T02:09:28;240.35;;;221.98;;
64403;SDS011;50726;54.912;-8.392;2022-09-09T02:12:11;249.65;;;231.43;;
64403;SDS011;50726;54.912;-8.392;2022-09-09T02:14:42;247.95;;;229.05;;
64403;SDS011;50726;54.912;-8.392;2022-09-09T02:17:14;247.32;;;230.18;;
64403;SDS011;50726;54.912;-8.392;2022-09-09T02:19:48;234.55;;;218.10;;
64403;SDS011;50726;54.912;-8.392;2022-09-09T02:22:17;230.63;;;213.95;;
64403;SDS011;50726;54.912;-8.392;2022-09-09T02:24:47;252.48;;;234.13;;
64403;SDS011;50726;54.912;-8.392;2022-09-09T02:27:16;246.53;;;228.07;;
64403;SDS011;50726;54.912;-8.392;2022-09-09T02:29:44;247.93;;;228.73;;
64403;SDS011;50726;54.912;-8.392;2022-09-09T02:32:13;237.55;;;219.73;;
64403;SDS011;50726;54.912;-8.392;2022-09-09T02:34:47;239.63;;;222.32;;
64403;SDS011;50726;54.912;-8.392;2022-09-09T02:37:17;238.05;;;219.90;;
64403;SDS011;50726;54.912;-8.392;2022-09-09T02:39:46;229.38;;;212.73;;
64403;SDS011;50726;54.912;-8.392;2022-09-09T02:42:13;237.02;;;220.10;;
64403;SDS011;50726;54.912;-8.392;2022-09-09T02:44:40;200.43;;;185.10;;
64403;SDS011;50726;54.912;-8.392;2022-09-09T02:47:13;233.68;;;215.60;;
64403;SDS011;50726;54.912;-8.392;2022-09-09T02:50:11;195.93;;;180.80;;
64403;SDS011;50726;54.912;-8.392;2022-09-09T02:55:21;235.85;;;218.65;;
64403;SDS011;50726;54.912;-8.392;2022-09-09T02:57:55;237.25;;;219.25;;
64403;SDS011;50726;54.912;-8.392;2022-09-09T03:00:23;225.25;;;208.68;;
64403;SDS011;50726;54.912;-8.392;2022-09-09T03:02:50;233.82;;;217.15;;
64403;SDS011;50726;54.912;-8.392;2022-09-09T03:05:16;237.90;;;219.65;;
64403;SDS011;50726;54.912;-8.392;2022-09-09T03:07:42;227.60;;;210.32;;
64403;SDS011;50726;54.912;-8.392;2022-09-09T03:10:08;222.10;;;205.85;;
64403;SDS011;50726;54.912;-8.392;2022-09-09T03:12:35;205.30;;;190.98;;
64403;SDS011;50726;54.912;-8.392;2022-09-09T03:15:01;239.32;;;221.95;;
64403;SDS011;50726;54.912;-8.392;2022-09-09T03:17:27;239.73;;;222.30;;
64403;SDS011;50726;54.912;-8.392;2022-09-09T03:19:53;241.93;;;223.52;;
64403;SDS011;50726;54.912;-8.392;2022-09-09T03:22:20;239.27;;;222.50;;
64403;SDS011;50726;54.912;-8.392;2022-09-09T03:24:47;236.07;;;217.77;;
64403;SDS011;50726;54.912;-8.392;2022-09-09T03:27:12;228.88;;;212.50;;
64403;SDS011;50726;54.912;-8.392;2022-09-09T03:29:39;238.70;;;220.90;;
64403;SDS011;50726;54.912;-8.392;2022-09-09T03:32:05;230.07;;;212.55;;
64403;SDS011;50726;54.912;-8.392;2022-09-09T03:34:31;196.25;;;180.88;;
64403;SDS011;50726;54.912;-8.392;2022-09-09T03:36:57;215.30;;;199.95;;
64403;SDS011;50726;54.912;-8.392;2022-09-09T03:39:22;222.52;;;207.25;;
64403;SDS011;50726;54.912;-8.392;2022-09-09T03:41:48;229.15;;;213.23;;
64403;SDS011;50726;54.912;-8.392;2022-09-09T03:44:14;221.88;;;206.45;;
64403;SDS011;50726;54.912;-8.392;2022-09-09T03:46:40;216.38;;;200.20;;
64403;SDS011;50726;54.912;-8.392;2022-09-09T03:49:05;227.90;;;211.65;;
64403;SDS011;50726;54.912;-8.392;2022-09-09T03:51:31;227.60;;;210.90;;
64403;SDS011;50726;54.912;-8.392;2022-09-09T03:54:02;230.40;;;212.30;;
64403;SDS011;50726;54.912;-8.392;2022-09-09T03:56:30;233.68;;;216.57;;
64403;SDS011;50726;54.912;-8.392;2022-09-09T03:58:56;227.07;;;210.32;;
64403;SDS011;50726;54.912;-8.392;2022-09-09T04:01:22;221.05;;;205.25;;
64403;SDS011;50726;54.912;-8.392;2022-09-09T04:03:48;223.20;;;206.23;;
64403;SDS011;50726;54.912;-8.392;2022-09-09T04:06:18;246.43;;;228.50;;
64403;SDS011;50726;54.912;-8.392;2022-09-09T04:08:46;225.43;;;208.63;;
64403;SDS011;50726;54.912;-8.392;2022-09-09T04:11:14;236.07;;;219.45;;
64403;SDS011;50726;54.912;-8.392;2022-09-09T04:13:40;241.45;;;224.45;;
64403;SDS011;50726;54.912;-8.392;2022-09-09T04:16:07;185.23;;;170.68;;
64403;SDS011;50726;54.912;-8.392;2022-09-09T04:18:35;245.88;;;228.55;;
64403;SDS011;50726;54.912;-8.392;2022-09-09T04:21:04;223.93;;;208.80;;
64403;SDS011;50726;54.912;-8.392;2022-09-09T04:23:31;200.00;;;185.77;;
64403;SDS011;50726;54.912;-8.392;2022-09-09T04:25:58;191.48;;;177.50;;
64403;SDS011;50726;54.912;-8.392;2022-09-09T04:28:27;198.18;;;183.75;;
64403;SDS011;50726;54.912;-8.392;2022-09-09T04:30:57;236.27;;;220.07;;
64403;SDS011;50726;54.912;-8.392;2022-09-09T04:33:29;228.73;;;211.73;;
64403;SDS011;50726;54.912;-8.392;2022-09-09T04:35:56;227.15;;;210.15;;
64403;SDS011;50726;54.912;-8.392;2022-09-09T04:38:22;188.85;;;175.18;;
64403;SDS011;50726;54.912;-8.392;2022-09-09T04:40:49;233.68;;;216.18;;
64403;SDS011;50726;54.912;-8.392;2022-09-09T04:43:16;196.32;;;181.45;;
64403;SDS011;50726;54.912;-8.392;2022-09-09T04:45:46;207.65;;;191.25;;
64403;SDS011;50726;54.912;-8.392;2022-09-09T04:48:13;218.70;;;202.40;;
64403;SDS011;50726;54.912;-8.392;2022-09-09T04:50:39;216.73;;;201.13;;
64403;SDS011;50726;54.912;-8.392;2022-09-09T04:53:06;210.50;;;195.00;;
64403;SDS011;50726;54.912;-8.392;2022-09-09T04:55:32;236.50;;;219.45;;
64403;SDS011;50726;54.912;-8.392;2022-09-09T04:58:07;236.07;;;217.93;;
64403;SDS011;50726;54.912;-8.392;2022-09-09T05:00:37;242.35;;;224.40;;
64403;SDS011;50726;54.912;-8.392;2022-09-09T05:03:03;236.77;;;218.07;;
64403;SDS011;50726;54.912;-8.392;2022-09-09T05:05:32;237.98;;;220.43;;
64403;SDS011;50726;54.912;-8.392;2022-09-09T05:08:02;223.50;;;207.13;;
64403;SDS011;50726;54.912;-8.392;2022-09-09T05:10:28;224.40;;;207.77;;
64403;SDS011;50726;54.912;-8.392;2022-09-09T05:12:54;238.45;;;220.80;;
64403;SDS011;50726;54.912;-8.392;2022-09-09T05:15:20;216.30;;;199.60;;
64403;SDS011;50726;54.912;-8.392;2022-09-09T05:17:48;216.10;;;200.40;;
64403;SDS011;50726;54.912;-8.392;2022-09-09T05:20:14;225.38;;;208.85;;
64403;SDS011;50726;54.912;-8.392;2022-09-09T05:22:39;216.85;;;201.10;;
64403;SDS011;50726;54.912;-8.392;2022-09-09T05:25:05;242.02;;;224.57;;
64403;SDS011;50726;54.912;-8.392;2022-09-09T05:27:36;245.98;;;228.55;;
64403;SDS011;50726;54.912;-8.392;2022-09-09T05:30:02;239.27;;;222.55;;
64403;SDS011;50726;54.912;-8.392;2022-09-09T05:32:29;247.23;;;229.43;;
64403;SDS011;50726;54.912;-8.392;2022-09-09T05:34:59;246.00;;;228.75;;
64403;SDS011;50726;54.912;-8.392;2022-09-09T05:37:24;247.43;;;229.27;;
64403;SDS011;50726;54.912;-8.392;2022-09-09T05:39:51;254.10;;;235.18;;
64403;SDS011;50726;54.912;-8.392;2022-09-09T05:42:18;251.05;;;233.32;;
64403;SDS011;50726;54.912;-8.392;2022-09-09T05:44:46;255.27;;;236.80;;
64403;SDS011;50726;54.912;-8.392;2022-09-09T05:47:11;253.05;;;235.23;;
64403;SDS011;50726;54.912;-8.392;2022-09-09T05:49:37;253.63;;;235.48;;
64403;SDS011;50726;54.912;-8.392;2022-09-09T05:52:02;254.20;;;236.73;;
64403;SDS011;50726;54.912;-8.392;2022-09-09T05:54:29;255.95;;;237.70;;
64403;SDS011;50726;54.912;-8.392;2022-09-09T05:56:55;258.65;;;240.32;;
64403;SDS011;50726;54.912;-8.392;2022-09-09T05:59:20;260.23;;;241.68;;
64403;SDS011;50726;54.912;-8.392;2022-09-09T06:01:48;257.25;;;239.35;;
64403;SDS011;50726;54.912;-8.392;2022-09-09T06:04:13;252.50;;;234.95;;
64403;SDS011;50726;54.912;-8.392;2022-09-09T06:06:39;253.57;;;235.00;;
64403;SDS011;50726;54.912;-8.392;2022-09-09T06:09:07;243.90;;;226.05;;
64403;SDS011;50726;54.912;-8.392;2022-09-09T06:11:37;260.27;;;241.70;;
64403;SDS011;50726;54.912;-8.392;2022-09-09T06:14:04;253.48;;;235.20;;
64403;SDS011;50726;54.912;-8.392;2022-09-09T06:16:31;251.20;;;232.55;;
64403;SDS011;50726;54.912;-8.392;2022-09-09T06:18:58;241.65;;;223.18;;
64403;SDS011;50726;54.912;-8.392;2022-09-09T06:21:29;247.00;;;229.05;;
64403;SDS011;50726;54.912;-8.392;2022-09-09T06:23:59;244.75;;;226.77;;
64403;SDS011;50726;54.912;-8.392;2022-09-09T06:26:26;246.48;;;228.43;;
64403;SDS011;50726;54.912;-8.392;2022-09-09T06:28:58;248.20;;;229.35;;
64403;SDS011;50726;54.912;-8.392;2022-09-09T06:31:25;241.57;;;224.13;;
64403;SDS011;50726;54.912;-8.392;2022-09-09T06:33:56;240.82;;;222.25;;
64403;SDS011;50726;54.912;-8.392;2022-09-09T06:36:23;242.15;;;223.18;;
64403;SDS011;50726;54.912;-8.392;2022-09-09T06:38:50;242.60;;;224.88;;
64403;SDS011;50726;54.912;-8.392;2022-09-09T06:41:17;231.30;;;214.60;;
64403;SDS011;50726;54.912;-8.392;2022-09-09T06:43:44;240.98;;;223.63;;
64403;SDS011;50726;54.912;-8.392;2022-09-09T06:46:12;250.27;;;232.32;;
64403;SDS011;50726;54.912;-8.392;2022-09-09T06:48:43;226.13;;;208.80;;
64403;SDS011;50726;54.912;-8.392;2022-09-09T06:51:14;238.32;;;220.30;;
64403;SDS011;50726;54.912;-8.392;2022-09-09T06:53:43;229.82;;;212.23;;
64403;SDS011;50726;54.912;-8.392;2022-09-09T06:58:39;235.90;;;218.48;;
64403;SDS011;50726;54.912;-8.392;2022-09-09T07:01:15;229.93;;;213.27;;
64403;SDS011;50726;54.912;-8.392;2022-09-09T07:03:45;227.02;;;209.57;;
64403;SDS011;50726;54.912;-8.392;2022-09-09T07:06:18;225.63;;;209.32;;
64403;SDS011;50726;54.912;-8.392;2022-09-09T07:08:49;252.85;;;234.27;;
64403;SDS011;50726;54.912;-8.392;2022-09-09T07:11:19;206.07;;;191.00;;
64403;SDS011;50726;54.912;-8.392;2022-09-09T07:13:47;267.40;;;248.90;;
64403;SDS011;50726;54.912;-8.392;2022-09-09T07:16:15;262.08;;;243.85;;
64403;SDS011;50726;54.912;-8.392;2022-09-09T07:18:42;270.73;;;251.63;;
64403;SDS011;50726;54.912;-8.392;2022-09-09T07:21:12;273.60;;;254.27;;
64403;SDS011;50726;54.912;-8.392;2022-09-09T07:23:39;273.15;;;253.98;;
64403;SDS011;50726;54.912;-8.392;2022-09-09T07:26:13;276.70;;;256.92;;
64403;SDS011;50726;54.912;-8.392;2022-09-09T07:28:40;232.55;;;216.25;;
64403;SDS011;50726;54.912;-8.392;2022-09-09T07:31:07;274.58;;;255.50;;
64403;SDS011;50726;54.912;-8.392;2022-09-09T07:33:38;279.95;;;260.13;;
64403;SDS011;50726;54.912;-8.392;2022-09-09T07:36:25;230.82;;;214.48;;
64403;SDS011;50726;54.912;-8.392;2022-09-09T07:38:53;282.15;;;262.50;;
64403;SDS011;50726;54.912;-8.392;2022-09-09T07:41:28;261.67;;;243.20;;
64403;SDS011;50726;54.912;-8.392;2022-09-09T07:44:08;283.88;;;264.10;;
64403;SDS011;50726;54.912;-8.392;2022-09-09T07:46:36;269.60;;;249.40;;
64403;SDS011;50726;54.912;-8.392;2022-09-09T07:49:04;282.50;;;262.63;;
64403;SDS011;50726;54.912;-8.392;2022-09-09T07:51:34;283.25;;;261.70;;
64403;SDS011;50726;54.912;-8.392;2022-09-09T07:54:06;237.50;;;220.18;;
64403;SDS011;50726;54.912;-8.392;2022-09-09T07:56:34;283.20;;;262.05;;
64403;SDS011;50726;54.912;-8.392;2022-09-09T07:59:00;274.48;;;254.95;;
64403;SDS011;50726;54.912;-8.392;2022-09-09T08:01:36;280.25;;;259.88;;
64403;SDS011;50726;54.912;-8.392;2022-09-09T08:04:11;269.80;;;251.20;;
64403;SDS011;50726;54.912;-8.392;2022-09-09T08:06:43;262.40;;;243.75;;
64403;SDS011;50726;54.912;-8.392;2022-09-09T08:09:24;265.65;;;246.73;;
64403;SDS011;50726;54.912;-8.392;2022-09-09T08:11:54;291.90;;;271.30;;
64403;SDS011;50726;54.912;-8.392;2022-09-09T08:14:22;284.65;;;264.67;;
64403;SDS011;50726;54.912;-8.392;2022-09-09T08:16:48;295.88;;;275.42;;
64403;SDS011;50726;54.912;-8.392;2022-09-09T08:19:14;280.50;;;260.85;;
64403;SDS011;50726;54.912;-8.392;2022-09-09T08:21:41;267.17;;;248.02;;
64403;SDS011;50726;54.912;-8.392;2022-09-09T08:26:38;303.05;;;282.00;;
64403;SDS011;50726;54.912;-8.392;2022-09-09T08:29:07;272.75;;;254.00;;
64403;SDS011;50726;54.912;-8.392;2022-09-09T08:31:54;308.90;;;287.77;;
64403;SDS011;50726;54.912;-8.392;2022-09-09T08:34:22;334.42;;;311.80;;
64403;SDS011;50726;54.912;-8.392;2022-09-09T08:36:51;323.65;;;301.50;;
64403;SDS011;50726;54.912;-8.392;2022-09-09T08:39:17;332.50;;;310.77;;
64403;SDS011;50726;54.912;-8.392;2022-09-09T08:47:54;323.23;;;301.20;;
64403;SDS011;50726;54.912;-8.392;2022-09-09T08:50:25;339.25;;;316.60;;
64403;SDS011;50726;54.912;-8.392;2022-09-09T09:11:46;330.45;;;308.80;;
64403;SDS011;50726;54.912;-8.392;2022-09-09T09:14:23;328.60;;;306.80;;
64403;SDS011;50726;54.912;-8.392;2022-09-09T09:16:54;298.20;;;278.45;;
64403;SDS011;50726;54.912;-8.392;2022-09-09T09:19:21;308.27;;;288.55;;
64403;SDS011;50726;54.912;-8.392;2022-09-09T09:24:59;308.77;;;289.58;;
64403;SDS011;50726;54.912;-8.392;2022-09-09T09:27:40;308.50;;;289.55;;
64403;SDS011;50726;54.912;-8.392;2022-09-09T09:30:26;326.60;;;307.20;;
64403;SDS011;50726;54.912;-8.392;2022-09-09T09:33:08;283.25;;;264.95;;
64403;SDS011;50726;54.912;-8.392;2022-09-09T09:35:49;281.63;;;263.85;;
64403;SDS011;50726;54.912;-8.392;2022-09-09T09:38:20;272.25;;;255.77;;
64403;SDS011;50726;54.912;-8.392;2022-09-09T09:40:52;329.15;;;309.95;;
64403;SDS011;50726;54.912;-8.392;2022-09-09T09:43:33;323.73;;;303.67;;
64403;SDS011;50726;54.912;-8.392;2022-09-09T09:46:00;348.33;;;326.80;;
64403;SDS011;50726;54.912;-8.392;2022-09-09T09:48:28;329.57;;;308.37;;
64403;SDS011;50726;54.912;-8.392;2022-09-09T09:50:55;341.55;;;320.50;;
64403;SDS011;50726;54.912;-8.392;2022-09-09T09:53:26;311.40;;;292.95;;
64403;SDS011;50726;54.912;-8.392;2022-09-09T09:55:55;321.65;;;302.67;;
64403;SDS011;50726;54.912;-8.392;2022-09-09T09:58:23;299.13;;;280.50;;
64403;SDS011;50726;54.912;-8.392;2022-09-09T10:00:51;270.05;;;253.95;;
64403;SDS011;50726;54.912;-8.392;2022-09-09T10:03:31;303.17;;;285.95;;
64403;SDS011;50726;54.912;-8.392;2022-09-09T10:06:02;282.75;;;266.67;;
64403;SDS011;50726;54.912;-8.392;2022-09-09T10:08:29;294.70;;;277.80;;
64403;SDS011;50726;54.912;-8.392;2022-09-09T10:11:06;346.20;;;326.13;;
64403;SDS011;50726;54.912;-8.392;2022-09-09T10:24:48;293.48;;;276.80;;
64403;SDS011;50726;54.912;-8.392;2022-09-09T10:27:49;273.20;;;256.80;;
64403;SDS011;50726;54.912;-8.392;2022-09-09T10:30:29;257.75;;;243.07;;
64403;SDS011;50726;54.912;-8.392;2022-09-09T10:33:09;291.95;;;275.00;;
64403;SDS011;50726;54.912;-8.392;2022-09-09T10:38:39;344.27;;;325.17;;
64403;SDS011;50726;54.912;-8.392;2022-09-09T10:41:11;268.05;;;253.35;;
64403;SDS011;50726;54.912;-8.392;2022-09-09T10:46:34;305.80;;;288.30;;
64403;SDS011;50726;54.912;-8.392;2022-09-09T10:57:39;262.25;;;247.73;;
64403;SDS011;50726;54.912;-8.392;2022-09-09T11:00:54;270.23;;;254.57;;
64403;SDS011;50726;54.912;-8.392;2022-09-09T11:03:09;281.08;;;265.15;;
64403;SDS011;50726;54.912;-8.392;2022-09-09T11:05:44;303.35;;;286.38;;
64403;SDS011;50726;54.912;-8.392;2022-09-09T11:08:18;268.63;;;253.27;;
64403;SDS011;50726;54.912;-8.392;2022-09-09T11:16:00;292.92;;;275.88;;
64403;SDS011;50726;54.912;-8.392;2022-09-09T11:18:38;265.13;;;250.32;;
64403;SDS011;50726;54.912;-8.392;2022-09-09T11:21:08;270.45;;;255.30;;
64403;SDS011;50726;54.912;-8.392;2022-09-09T11:23:44;324.00;;;306.13;;
64403;SDS011;50726;54.912;-8.392;2022-09-09T11:26:51;302.92;;;285.83;;
64403;SDS011;50726;54.912;-8.392;2022-09-09T11:38:29;302.75;;;285.30;;
64403;SDS011;50726;54.912;-8.392;2022-09-09T11:41:07;319.30;;;301.58;;
64403;SDS011;50726;54.912;-8.392;2022-09-09T11:43:48;317.08;;;299.40;;
64403;SDS011;50726;54.912;-8.392;2022-09-09T11:46:22;331.35;;;312.75;;
64403;SDS011;50726;54.912;-8.392;2022-09-09T11:49:01;310.98;;;293.92;;
64403;SDS011;50726;54.912;-8.392;2022-09-09T11:51:30;352.05;;;331.60;;
64403;SDS011;50726;54.912;-8.392;2022-09-09T11:53:58;370.38;;;349.15;;
64403;SDS011;50726;54.912;-8.392;2022-09-09T11:56:33;371.75;;;350.45;;
64403;SDS011;50726;54.912;-8.392;2022-09-09T11:59:20;328.35;;;309.27;;
64403;SDS011;50726;54.912;-8.392;2022-09-09T12:04:40;320.80;;;302.33;;
64403;SDS011;50726;54.912;-8.392;2022-09-09T12:07:33;285.70;;;269.60;;
64403;SDS011;50726;54.912;-8.392;2022-09-09T12:10:05;308.33;;;290.52;;
64403;SDS011;50726;54.912;-8.392;2022-09-09T12:12:47;245.27;;;231.02;;
64403;SDS011;50726;54.912;-8.392;2022-09-09T12:17:48;213.13;;;201.05;;
64403;SDS011;50726;54.912;-8.392;2022-09-09T12:33:32;355.10;;;335.02;;
64403;SDS011;50726;54.912;-8.392;2022-09-09T12:36:00;381.95;;;359.77;;
64403;SDS011;50726;54.912;-8.392;2022-09-09T12:40:59;383.70;;;361.35;;
64403;SDS011;50726;54.912;-8.392;2022-09-09T12:43:26;348.30;;;327.83;;
64403;SDS011;50726;54.912;-8.392;2022-09-09T12:46:00;335.60;;;316.48;;
64403;SDS011;50726;54.912;-8.392;2022-09-09T12:48:37;294.02;;;277.52;;
64403;SDS011;50726;54.912;-8.392;2022-09-09T12:51:18;309.23;;;291.58;;
64403;SDS011;50726;54.912;-8.392;2022-09-09T12:53:50;314.85;;;296.80;;
64403;SDS011;50726;54.912;-8.392;2022-09-09T12:56:21;325.88;;;307.67;;
64403;SDS011;50726;54.912;-8.392;2022-09-09T12:58:52;293.73;;;276.88;;
64403;SDS011;50726;54.912;-8.392;2022-09-09T13:01:41;272.83;;;257.50;;
64403;SDS011;50726;54.912;-8.392;2022-09-09T13:04:16;243.20;;;229.45;;
64403;SDS011;50726;54.912;-8.392;2022-09-09T13:06:45;245.20;;;230.93;;
64403;SDS011;50726;54.912;-8.392;2022-09-09T13:09:10;209.65;;;197.70;;
64403;SDS011;50726;54.912;-8.392;2022-09-09T13:11:41;198.10;;;186.65;;
64403;SDS011;50726;54.912;-8.392;2022-09-09T13:14:30;183.73;;;173.30;;
64403;SDS011;50726;54.912;-8.392;2022-09-09T13:17:00;177.15;;;167.00;;
64403;SDS011;50726;54.912;-8.392;2022-09-09T13:19:37;157.75;;;148.90;;
64403;SDS011;50726;54.912;-8.392;2022-09-09T13:25:02;126.28;;;119.13;;
64403;SDS011;50726;54.912;-8.392;2022-09-09T13:27:32;127.32;;;120.57;;
64403;SDS011;50726;54.912;-8.392;2022-09-09T13:29:59;92.57;;;87.78;;
64403;SDS011;50726;54.912;-8.392;2022-09-09T13:32:26;79.65;;;75.15;;
64403;SDS011;50726;54.912;-8.392;2022-09-09T13:34:56;73.07;;;68.95;;
64403;SDS011;50726;54.912;-8.392;2022-09-09T13:39:53;76.88;;;72.70;;
64403;SDS011;50726;54.912;-8.392;2022-09-09T13:42:22;71.32;;;67.15;;
64403;SDS011;50726;54.912;-8.392;2022-09-09T13:44:53;69.13;;;65.22;;
64403;SDS011;50726;54.912;-8.392;2022-09-09T13:47:54;56.15;;;52.80;;
64403;SDS011;50726;54.912;-8.392;2022-09-09T13:52:55;44.25;;;41.58;;
64403;SDS011;50726;54.912;-8.392;2022-09-09T13:55:29;32.88;;;30.77;;
64403;SDS011;50726;54.912;-8.392;2022-09-09T13:57:57;37.58;;;35.05;;
64403;SDS011;50726;54.912;-8.392;2022-09-09T14:00:29;21.38;;;20.17;;
64403;SDS011;50726;54.912;-8.392;2022-09-09T14:02:56;22.40;;;20.55;;
64403;SDS011;50726;54.912;-8.392;2022-09-09T14:05:22;13.07;;;11.20;;
64403;SDS011;50726;54.912;-8.392;2022-09-09T14:07:48;15.90;;;14.38;;
64403;SDS011;50726;54.912;-8.392;2022-09-09T14:10:14;6.93;;;4.22;;
64403;SDS011;50726;54.912;-8.392;2022-09-09T14:12:40;6.47;;;4.60;;
64403;SDS011;50726;54.912;-8.392;2022-09-09T14:15:06;8.88;;;4.10;;
64403;SDS011;50726;54.912;-8.392;2022-09-09T14:17:34;6.32;;;3.75;;
64403;SDS011;50726;54.912;-8.392;2022-09-09T14:20:02;5.47;;;2.53;;
64403;SDS011;50726;54.912;-8.392;2022-09-09T14:22:30;3.67;;;2.10;;
64403;SDS011;50726;54.912;-8.392;2022-09-09T14:24:56;6.60;;;2.55;;
64403;SDS011;50726;54.912;-8.392;2022-09-09T14:27:23;8.32;;;2.50;;
64403;SDS011;50726;54.912;-8.392;2022-09-09T14:29:51;5.10;;;2.53;;
64403;SDS011;50726;54.912;-8.392;2022-09-09T14:32:16;6.43;;;2.28;;
64403;SDS011;50726;54.912;-8.392;2022-09-09T14:34:42;6.57;;;2.97;;
64403;SDS011;50726;54.912;-8.392;2022-09-09T14:37:07;6.30;;;2.30;;
64403;SDS011;50726;54.912;-8.392;2022-09-09T14:39:33;4.32;;;2.28;;
64403;SDS011;50726;54.912;-8.392;2022-09-09T14:41:58;4.10;;;2.35;;
64403;SDS011;50726;54.912;-8.392;2022-09-09T14:44:24;2.35;;;1.55;;
64403;SDS011;50726;54.912;-8.392;2022-09-09T14:46:50;4.65;;;1.50;;
64403;SDS011;50726;54.912;-8.392;2022-09-09T14:49:15;8.27;;;2.38;;
64403;SDS011;50726;54.912;-8.392;2022-09-09T14:51:41;6.75;;;2.17;;
64403;SDS011;50726;54.912;-8.392;2022-09-09T14:54:07;5.68;;;2.55;;
64403;SDS011;50726;54.912;-8.392;2022-09-09T14:56:34;16.10;;;5.40;;
64403;SDS011;50726;54.912;-8.392;2022-09-09T14:59:00;12.57;;;9.27;;
64403;SDS011;50726;54.912;-8.392;2022-09-09T15:01:26;10.13;;;9.13;;
64403;SDS011;50726;54.912;-8.392;2022-09-09T15:03:58;11.43;;;10.43;;
64403;SDS011;50726;54.912;-8.392;2022-09-09T15:06:28;11.80;;;10.30;;
64403;SDS011;50726;54.912;-8.392;2022-09-09T15:08:56;7.25;;;6.57;;
64403;SDS011;50726;54.912;-8.392;2022-09-09T15:11:27;4.63;;;4.22;;
64403;SDS011;50726;54.912;-8.392;2022-09-09T15:13:55;6.20;;;4.30;;
64403;SDS011;50726;54.912;-8.392;2022-09-09T15:16:22;7.05;;;3.78;;
64403;SDS011;50726;54.912;-8.392;2022-09-09T15:18:50;5.07;;;3.20;;
64403;SDS011;50726;54.912;-8.392;2022-09-09T15:23:46;6.03;;;4.35;;
64403;SDS011;50726;54.912;-8.392;2022-09-09T15:26:12;8.63;;;6.03;;
64403;SDS011;50726;54.912;-8.392;2022-09-09T15:28:41;12.95;;;12.13;;
64403;SDS011;50726;54.912;-8.392;2022-09-09T15:31:12;24.30;;;22.27;;
64403;SDS011;50726;54.912;-8.392;2022-09-09T15:38:40;20.40;;;18.60;;
64403;SDS011;50726;54.912;-8.392;2022-09-09T15:41:06;21.05;;;19.60;;
64403;SDS011;50726;54.912;-8.392;2022-09-09T15:43:32;24.08;;;22.30;;
64403;SDS011;50726;54.912;-8.392;2022-09-09T15:45:59;34.92;;;32.65;;
64403;SDS011;50726;54.912;-8.392;2022-09-09T15:48:46;46.95;;;44.25;;
64403;SDS011;50726;54.912;-8.392;2022-09-09T15:51:11;52.28;;;49.20;;
64403;SDS011;50726;54.912;-8.392;2022-09-09T15:53:38;68.00;;;64.47;;
64403;SDS011;50726;54.912;-8.392;2022-09-09T15:56:05;87.10;;;82.47;;
64403;SDS011;50726;54.912;-8.392;2022-09-09T15:58:34;90.35;;;85.72;;
64403;SDS011;50726;54.912;-8.392;2022-09-09T16:01:04;88.78;;;83.78;;
64403;SDS011;50726;54.912;-8.392;2022-09-09T16:03:36;72.50;;;67.93;;
64403;SDS011;50726;54.912;-8.392;2022-09-09T16:06:03;51.20;;;47.80;;
64403;SDS011;50726;54.912;-8.392;2022-09-09T16:08:37;32.25;;;30.35;;
64403;SDS011;50726;54.912;-8.392;2022-09-09T16:11:14;20.67;;;18.83;;
64403;SDS011;50726;54.912;-8.392;2022-09-09T16:13:42;8.15;;;7.35;;
64403;SDS011;50726;54.912;-8.392;2022-09-09T16:16:13;4.57;;;4.22;;
64403;SDS011;50726;54.912;-8.392;2022-09-09T16:18:40;3.38;;;3.08;;
64403;SDS011;50726;54.912;-8.392;2022-09-09T16:21:21;5.30;;;2.38;;
64403;SDS011;50726;54.912;-8.392;2022-09-09T16:23:51;7.85;;;2.50;;
64403;SDS011;50726;54.912;-8.392;2022-09-09T16:26:18;3.55;;;2.35;;
64403;SDS011;50726;54.912;-8.392;2022-09-09T16:28:44;4.05;;;2.13;;
64403;SDS011;50726;54.912;-8.392;2022-09-09T16:31:13;6.22;;;3.03;;
64403;SDS011;50726;54.912;-8.392;2022-09-09T16:33:41;5.85;;;2.67;;
64403;SDS011;50726;54.912;-8.392;2022-09-09T16:36:09;5.90;;;3.03;;
64403;SDS011;50726;54.912;-8.392;2022-09-09T16:38:38;5.38;;;3.10;;
64403;SDS011;50726;54.912;-8.392;2022-09-09T16:41:04;5.03;;;3.38;;
64403;SDS011;50726;54.912;-8.392;2022-09-09T16:43:31;4.60;;;3.22;;
64403;SDS011;50726;54.912;-8.392;2022-09-09T16:45:57;6.55;;;3.55;;
64403;SDS011;50726;54.912;-8.392;2022-09-09T16:48:26;5.07;;;3.42;;
64403;SDS011;50726;54.912;-8.392;2022-09-09T16:51:00;6.95;;;4.30;;